Riddle, Oregon
Current Conditions -  °F | °C
As of 3:53 PM on Friday 28 Nov 2014 (Local Time) from KRBG Reporting Station
Light Rain Light Rain  
Wind Chill: 57°   Ceiling: 6500
Heat Index: 57°   Visibility: 10mi
Dew Point: 52°   Wind: 5mph
Humidity: 83%   Direction: 170°S
Pressure: 29.66"   Gusts: NA
Location:  42.95°N, 123.36°W
Report Text: KRBG 282353Z AUTO 17004KT 10SM -RA FEW050 BKN065 OVC090 14/11 A2966 RMK AO2 RAB43 SLP044 P0000 60012 T01390111 10144 20122 56006 TSNO
Loading
Personal Weather Stations






























Interactive Weather Map New forecast layout! Learn more

10-Day Weather Forecast

Advertisements
Track Severe Weather on mobile